Humidity-temperature Sensor

Selected Measurement Type: Relative Humidity

 
Relative Humidity [%]     6 entries per hour
Showing data from 4/14/2018 (00:00:00 Z) to 4/11/2018 (00:01:00 Z)
Previous Next [ Day | 3-Days | 7-Days ]
First Last
Prev [ Day | 3-Days | 7-Days ] Next
First Last

Start Time:     :
End Time:     :     
Time (in GMT) :00 :50 :40 :30 :20 :10
Previous Next [ Day | 3-Days | 7-Days ]
First Last
Prev [ Day | 3-Days | 7-Days ] Next
First Last


123 => good data
MM => data is determined as missing
-- => data not received/configured
Back to Top Back to Top
4/14/2018 00:00 to 23:10 79.19 77.87 78.84 76.90 75.91 76.31
4/13/2018 23:00 to 22:10 76.98 75.36 76.54 77.83 77.70 77.21
4/13/2018 22:00 to 21:10 77.30 78.08 76.48 77.15 77.66 76.27
4/13/2018 21:00 to 20:10 77.07 75.93 76.71 77.30 77.36 77.53
4/13/2018 20:00 to 19:10 77.97 78.33 78.29 78.65 78.44 79.72
4/13/2018 19:00 to 18:10 78.65 78.48 77.61 77.55 77.59 75.95
4/13/2018 18:00 to 17:10 77.70 76.73 76.86 77.15 79.83 80.88
4/13/2018 17:00 to 16:10 77.74 74.98 75.57 77.07 78.35 78.46
4/13/2018 16:00 to 15:10 79.93 78.14 78.52 77.91 75.89 76.73
4/13/2018 15:00 to 14:10 76.01 75.00 77.21 77.30 77.70 78.27
4/13/2018 14:00 to 13:10 79.32 77.07 77.32 77.43 79.91 78.98
4/13/2018 13:00 to 12:10 77.87 78.81 77.28 78.33 78.77 77.99
4/13/2018 12:00 to 11:10 79.09 77.91 79.13 77.97 79.85 76.46
4/13/2018 11:00 to 10:10 77.97 79.13 76.71 77.80 77.03 77.53
4/13/2018 10:00 to 9:10 77.24 76.84 79.36 76.37 77.34 76.29
4/13/2018 09:00 to 8:10 76.84 76.23 75.21 73.76 76.84 76.73
4/13/2018 08:00 to 7:10 77.30 78.20 76.50 76.56 78.73 77.70
4/13/2018 07:00 to 6:10 77.34 78.23 77.64 77.13 77.28 75.09
4/13/2018 06:00 to 5:10 77.70 77.26 76.69 76.35 76.73 77.17
4/13/2018 05:00 to 4:10 77.45 76.31 77.93 77.95 78.41 78.48
4/13/2018 04:00 to 3:10 76.63 77.03 77.80 77.91 76.67 76.06
4/13/2018 03:00 to 2:10 76.81 78.50 80.12 80.01 79.76 80.41
4/13/2018 02:00 to 1:10 78.96 80.08 79.80 77.64 77.91 77.70
4/13/2018 01:00 to 0:10 78.25 76.69 79.00 75.32 75.30 75.68
4/13/2018 00:00 to 23:10 77.19 76.94 76.16 76.67 79.11 77.61
4/12/2018 23:00 to 22:10 77.91 76.79 79.53 77.89 78.39 77.13
4/12/2018 22:00 to 21:10 77.89 76.60 77.74 76.79 77.85 78.04
4/12/2018 21:00 to 20:10 76.50 79.49 80.37 78.71 78.41 78.39
4/12/2018 20:00 to 19:10 79.66 79.32 78.77 79.99 79.64 80.16
4/12/2018 19:00 to 18:10 80.29 86.08 84.88 83.74 79.95 84.58
4/12/2018 18:00 to 17:10 87.05 88.25 85.53 88.16 88.25 89.93
4/12/2018 17:00 to 16:10 88.04 86.67 85.72 85.05 85.15 85.30
4/12/2018 16:00 to 15:10 85.09 81.80 82.67 83.11 84.12 82.16
4/12/2018 15:00 to 14:10 81.80 81.51 82.69 80.92 82.23 81.49
4/12/2018 14:00 to 13:10 82.86 84.67 85.49 86.73 87.45 88.04
4/12/2018 13:00 to 12:10 88.90 88.90 86.29 86.08 85.85 85.36
4/12/2018 12:00 to 11:10 85.51 85.51 86.58 86.65 86.88 83.34
4/12/2018 11:00 to 10:10 84.04 81.72 83.78 86.39 89.49 90.35
4/12/2018 10:00 to 9:10 90.84 87.53 86.84 86.92 86.29 86.44
4/12/2018 09:00 to 8:10 86.44 86.86 86.84 86.44 85.57 85.74
4/12/2018 08:00 to 7:10 86.60 83.30 83.95 85.91 84.60 83.95
4/12/2018 07:00 to 6:10 84.58 84.71 83.66 84.52 83.80 83.15
4/12/2018 06:00 to 5:10 81.76 79.80 81.83 81.09 80.20 85.87
4/12/2018 05:00 to 4:10 84.06 85.03 83.72 84.44 83.21 83.30
4/12/2018 04:00 to 3:10 81.85 79.17 80.06 79.59 78.90 76.39
4/12/2018 03:00 to 2:10 79.57 77.89 80.50 82.29 84.46 83.38
4/12/2018 02:00 to 1:10 81.85 81.89 83.80 81.45 83.64 83.38
4/12/2018 01:00 to 0:10 85.11 83.57 83.11 82.16 82.16 82.75
4/12/2018 00:00 to 23:10 82.58 81.70 82.94 81.91 81.32 81.15
4/11/2018 23:00 to 22:10 82.01 81.51 81.87 79.87 80.77 81.15
4/11/2018 22:00 to 21:10 79.91 81.53 79.89 80.50 81.09 81.40
4/11/2018 21:00 to 20:10 80.71 80.94 81.57 80.94 80.94 80.01
4/11/2018 20:00 to 19:10 81.47 81.74 81.95 81.66 83.32 81.66
4/11/2018 19:00 to 18:10 81.95 83.03 81.45 80.41 82.16 83.34
4/11/2018 18:00 to 17:10 81.40 80.75 79.99 83.05 82.04 80.94
4/11/2018 17:00 to 16:10 81.95 82.01 81.24 81.74 80.27 81.61
4/11/2018 16:00 to 15:10 81.87 82.06 81.89 82.94 83.03 82.98
4/11/2018 15:00 to 14:10 84.04 84.12 81.24 83.17 82.08 78.81
4/11/2018 14:00 to 13:10 79.38 81.89 83.45 83.80 82.54 81.70
4/11/2018 13:00 to 12:10 81.61 79.76 80.88 81.34 81.30 80.08
4/11/2018 12:00 to 11:10 80.33 80.98 79.38 81.13 79.43 79.00
4/11/2018 11:00 to 10:10 79.51 80.35 79.03 79.32 79.45 79.38
4/11/2018 10:00 to 9:10 80.18 80.63 80.50 80.52 80.23 80.12
4/11/2018 09:00 to 8:10 78.50 80.75 79.05 81.55 80.52 80.39
4/11/2018 08:00 to 7:10 79.70 80.71 81.93 82.48 81.00 79.68
4/11/2018 07:00 to 6:10 80.96 79.97 79.85 76.56 78.48 77.91
4/11/2018 06:00 to 5:10 77.91 78.56 76.41 75.91 77.43 76.56
4/11/2018 05:00 to 4:10 78.77 76.96 75.91 78.77 77.66 76.10
4/11/2018 04:00 to 3:10 76.90 77.78 76.94 75.72 76.69 75.97
4/11/2018 03:00 to 2:10 75.74 75.83 78.56 77.53 77.64 77.80
4/11/2018 02:00 to 1:10 76.58 74.77 77.78 76.84 76.96 75.64
4/11/2018 01:00 to 0:10 76.25 75.87 78.35 76.06 76.10 77.53